createdAt,value
2022-11-04T00:01:05.282Z,65.51
2022-11-04T00:03:52.602Z,65.61
2022-11-04T00:06:37.835Z,65.48
2022-11-04T00:09:26.512Z,65.48
2022-11-04T00:12:30.081Z,65.53
2022-11-04T00:15:34.402Z,65.59
2022-11-04T00:18:19.408Z,65.63
2022-11-04T00:21:23.692Z,65.59
2022-11-04T00:24:49.956Z,65.59
2022-11-04T00:27:54.451Z,65.74
2022-11-04T00:30:39.722Z,65.75
2022-11-04T00:33:27.964Z,65.74
2022-11-04T00:36:13.310Z,65.62
2022-11-04T00:38:58.826Z,65.78
2022-11-04T00:41:44.026Z,65.65
2022-11-04T00:44:29.354Z,65.57
2022-11-04T00:47:14.536Z,65.65
2022-11-04T00:49:59.731Z,65.57
2022-11-04T00:52:45.031Z,65.71
2022-11-04T00:55:30.403Z,65.73
2022-11-04T00:58:15.730Z,65.69
2022-11-04T01:01:00.985Z,65.84
2022-11-04T01:03:48.619Z,65.66
2022-11-04T01:06:33.917Z,65.72
2022-11-04T01:09:19.656Z,65.67
2022-11-04T01:12:05.295Z,65.65
2022-11-04T01:14:51.244Z,65.75
2022-11-04T01:17:36.703Z,65.80
2022-11-04T01:20:21.959Z,65.73
2022-11-04T01:23:07.130Z,65.91
2022-11-04T01:25:52.582Z,65.91
2022-11-04T01:28:37.721Z,65.85
2022-11-04T01:31:28.394Z,65.81
2022-11-04T01:34:14.006Z,65.82
2022-11-04T01:36:59.271Z,65.92
2022-11-04T01:39:44.591Z,65.83
2022-11-04T01:42:30.285Z,65.82
2022-11-04T01:45:18.674Z,65.74
2022-11-04T01:48:18.132Z,65.82
2022-11-04T01:51:04.719Z,65.92
2022-11-04T01:53:52.174Z,65.78
2022-11-04T01:56:39.808Z,65.96
2022-11-04T01:59:33.035Z,65.92
2022-11-04T02:02:18.804Z,65.84
2022-11-04T02:05:05.041Z,65.87
2022-11-04T02:07:55.164Z,65.84
2022-11-04T02:10:46.698Z,65.78
2022-11-04T02:13:35.804Z,65.74
2022-11-04T02:16:34.784Z,66.09
2022-11-04T02:19:48.878Z,66.03
2022-11-04T02:22:40.156Z,66.01
2022-11-04T02:25:31.401Z,65.99
2022-11-04T02:28:35.650Z,65.98
2022-11-04T02:31:27.238Z,66.05
2022-11-04T02:34:45.619Z,66.01
2022-11-04T02:37:57.237Z,66.17
2022-11-04T02:41:00.766Z,66.34
2022-11-04T02:43:57.503Z,66.26
2022-11-04T02:47:06.294Z,66.46
2022-11-04T02:50:13.202Z,66.35
2022-11-04T02:53:10.950Z,66.31
2022-11-04T02:55:58.627Z,66.31
2022-11-04T02:58:53.959Z,66.40
2022-11-04T03:01:43.462Z,66.33
2022-11-04T03:04:34.364Z,66.19
2022-11-04T03:07:25.023Z,66.17
2022-11-04T03:10:23.449Z,66.29
2022-11-04T03:13:20.924Z,66.19
2022-11-04T03:16:12.992Z,66.38
2022-11-04T03:19:26.592Z,66.22
2022-11-04T03:22:17.539Z,66.17
2022-11-04T03:25:05.380Z,66.12
2022-11-04T03:28:15.670Z,66.27
2022-11-04T03:31:04.688Z,66.29
2022-11-04T03:33:52.571Z,66.37
2022-11-04T03:36:38.079Z,66.36
2022-11-04T03:39:23.661Z,66.43
2022-11-04T03:42:21.297Z,66.39
2022-11-04T03:45:08.478Z,66.22
2022-11-04T03:47:55.642Z,66.34
2022-11-04T03:50:49.490Z,66.26
2022-11-04T03:53:36.049Z,66.22
2022-11-04T03:56:25.296Z,66.28
2022-11-04T03:59:25.911Z,66.28
2022-11-04T04:02:17.584Z,66.31
2022-11-04T04:05:15.995Z,66.23
2022-11-04T04:08:10.333Z,66.34
2022-11-04T04:11:29.687Z,66.25
2022-11-04T04:14:38.357Z,66.16
2022-11-04T04:17:55.048Z,66.38
2022-11-04T04:20:42.443Z,66.43
2022-11-04T04:23:50.247Z,66.48
2022-11-04T04:26:56.709Z,66.42
2022-11-04T04:29:45.074Z,66.43
2022-11-04T04:32:36.058Z,66.51
2022-11-04T04:35:43.732Z,66.58
2022-11-04T04:38:50.352Z,66.53
2022-11-04T04:41:54.316Z,66.50
2022-11-04T04:45:03.796Z,66.44
2022-11-04T04:47:49.163Z,66.55
2022-11-04T04:50:38.896Z,66.55
2022-11-04T04:53:25.671Z,66.58
2022-11-04T04:56:10.917Z,66.60
2022-11-04T04:58:56.208Z,66.62
2022-11-04T05:01:41.667Z,66.42
2022-11-04T05:04:27.428Z,66.34
2022-11-04T05:07:13.234Z,66.49
2022-11-04T05:09:58.599Z,66.77
2022-11-04T05:13:03.038Z,66.83
2022-11-04T05:15:48.431Z,67.58
2022-11-04T05:18:35.217Z,67.19
2022-11-04T05:21:20.660Z,67.57
2022-11-04T05:24:05.937Z,67.62
2022-11-04T05:26:51.413Z,67.32
2022-11-04T05:29:36.616Z,67.46
2022-11-04T05:32:22.167Z,66.92
2022-11-04T05:35:07.862Z,66.85
2022-11-04T05:37:55.501Z,66.73
2022-11-04T05:40:41.049Z,66.67
2022-11-04T05:43:26.504Z,66.53
2022-11-04T05:46:11.826Z,66.54
2022-11-04T05:48:57.653Z,66.34
2022-11-04T05:51:43.829Z,66.33
2022-11-04T05:54:29.120Z,66.61
2022-11-04T05:57:14.336Z,66.53
2022-11-04T05:59:59.599Z,66.52
2022-11-04T06:02:45.010Z,66.71
2022-11-04T06:05:30.342Z,66.54
2022-11-04T06:08:15.487Z,66.97
2022-11-04T06:11:01.080Z,66.74
2022-11-04T06:13:46.449Z,66.88
2022-11-04T06:16:31.708Z,67.05
2022-11-04T06:19:17.031Z,67.08
2022-11-04T06:22:03.994Z,67.12
2022-11-04T06:24:49.489Z,67.16
2022-11-04T06:27:34.672Z,66.97
2022-11-04T06:30:20.122Z,67.07
2022-11-04T06:33:05.557Z,67.07
2022-11-04T06:35:50.870Z,66.85
2022-11-04T06:38:37.955Z,67.03
2022-11-04T06:41:23.101Z,67.17
2022-11-04T06:44:08.644Z,66.95
2022-11-04T06:46:54.364Z,67.02
2022-11-04T06:49:39.979Z,67.10
2022-11-04T06:52:25.892Z,66.83
2022-11-04T06:55:11.551Z,66.80
2022-11-04T06:57:57.065Z,66.77
2022-11-04T07:00:42.758Z,66.78
2022-11-04T07:03:28.078Z,66.84
2022-11-04T07:06:13.283Z,66.85
2022-11-04T07:09:00.777Z,66.79
2022-11-04T07:11:46.243Z,66.79
2022-11-04T07:14:32.050Z,66.61
2022-11-04T07:17:17.693Z,66.64
2022-11-04T07:20:05.638Z,66.76
2022-11-04T07:22:54.346Z,66.86
2022-11-04T07:25:39.679Z,66.71
2022-11-04T07:28:25.037Z,66.54
2022-11-04T07:31:12.589Z,66.70
2022-11-04T07:33:58.035Z,66.53
2022-11-04T07:36:43.290Z,66.60
2022-11-04T07:39:28.584Z,66.68
2022-11-04T07:42:13.767Z,66.61
2022-11-04T07:44:59.193Z,66.59
2022-11-04T07:47:44.431Z,66.58
2022-11-04T07:50:29.793Z,66.53
2022-11-04T07:53:14.929Z,66.68
2022-11-04T07:56:04.557Z,66.74
2022-11-04T07:58:50.566Z,66.60
2022-11-04T08:01:36.082Z,66.72
2022-11-04T08:04:21.381Z,66.51
2022-11-04T08:07:11.084Z,66.57
2022-11-04T08:09:56.652Z,66.63
2022-11-04T08:12:41.845Z,66.62
2022-11-04T08:15:27.157Z,66.67
2022-11-04T08:18:12.289Z,66.70
2022-11-04T08:20:57.655Z,66.66
2022-11-04T08:23:43.166Z,66.59
2022-11-04T08:26:28.384Z,66.69
2022-11-04T08:29:13.606Z,66.64
2022-11-04T08:31:59.000Z,66.51
2022-11-04T08:34:45.407Z,66.59
2022-11-04T08:37:30.618Z,66.64
2022-11-04T08:40:15.890Z,66.65
2022-11-04T08:43:01.638Z,66.62
2022-11-04T08:45:46.851Z,66.60
2022-11-04T08:48:33.625Z,66.68
2022-11-04T08:51:22.445Z,66.63
2022-11-04T08:54:08.419Z,66.63
2022-11-04T08:56:54.112Z,66.68
2022-11-04T08:59:39.315Z,66.68
2022-11-04T09:02:24.487Z,66.54
2022-11-04T09:05:10.301Z,66.21
2022-11-04T09:07:55.641Z,66.54
2022-11-04T09:10:45.258Z,66.51
2022-11-04T09:13:34.300Z,66.54
2022-11-04T09:16:22.057Z,66.64
2022-11-04T09:19:07.965Z,66.50
2022-11-04T09:21:53.689Z,66.49
2022-11-04T09:24:39.056Z,66.64
2022-11-04T09:27:24.292Z,66.59
2022-11-04T09:30:10.338Z,66.49
2022-11-04T09:32:55.972Z,66.48
2022-11-04T09:35:41.315Z,66.57
2022-11-04T09:38:26.935Z,66.47
2022-11-04T09:41:35.781Z,66.39
2022-11-04T09:44:28.876Z,66.47
2022-11-04T09:47:17.999Z,66.42
2022-11-04T09:50:12.210Z,66.43
2022-11-04T09:53:22.865Z,66.46
2022-11-04T09:56:20.458Z,66.35
2022-11-04T09:59:06.736Z,66.63
2022-11-04T10:01:55.034Z,66.50
2022-11-04T10:04:52.496Z,66.33
2022-11-04T10:07:56.765Z,66.52
2022-11-04T10:11:06.831Z,66.40
2022-11-04T10:14:19.607Z,66.36
2022-11-04T10:17:12.970Z,66.34
2022-11-04T10:20:19.854Z,66.53
2022-11-04T10:23:35.173Z,66.33
2022-11-04T10:26:42.151Z,66.50
2022-11-04T10:29:42.761Z,66.58
2022-11-04T10:32:41.421Z,66.43
2022-11-04T10:35:45.475Z,66.53
2022-11-04T10:38:41.387Z,66.47
2022-11-04T10:41:26.728Z,66.43
2022-11-04T10:44:19.686Z,66.40
2022-11-04T10:47:33.307Z,66.37
2022-11-04T10:50:30.003Z,66.37
2022-11-04T10:53:20.595Z,66.43
2022-11-04T10:56:36.107Z,66.43
2022-11-04T10:59:28.798Z,66.28
2022-11-04T11:02:14.075Z,66.40
2022-11-04T11:05:18.942Z,66.44
2022-11-04T11:08:05.171Z,66.41
2022-11-04T11:10:51.993Z,66.28
2022-11-04T11:13:41.402Z,66.35
2022-11-04T11:16:28.138Z,66.40
2022-11-04T11:19:19.738Z,66.36
2022-11-04T11:22:05.295Z,66.81
2022-11-04T11:24:50.625Z,66.25
2022-11-04T11:27:36.065Z,66.18
2022-11-04T11:30:24.823Z,66.16
2022-11-04T11:33:38.217Z,66.18
2022-11-04T11:36:37.278Z,66.30
2022-11-04T11:39:28.618Z,66.35
2022-11-04T11:42:16.227Z,66.20
2022-11-04T11:45:05.111Z,66.13
2022-11-04T11:47:54.944Z,66.22
2022-11-04T11:50:56.759Z,66.13
2022-11-04T11:54:02.819Z,66.06
2022-11-04T12:09:55.040Z,65.98
2022-11-04T12:12:55.923Z,65.84
2022-11-04T12:15:59.962Z,66.01
2022-11-04T12:19:06.371Z,66.14
2022-11-04T12:22:07.144Z,66.12
2022-11-04T12:25:32.790Z,65.98
2022-11-04T12:28:35.312Z,66.00
2022-11-04T12:31:27.051Z,66.06
2022-11-04T12:34:15.366Z,66.02
2022-11-04T12:37:19.184Z,65.97
2022-11-04T12:40:34.609Z,66.09
2022-11-04T12:43:31.379Z,66.02
2022-11-04T12:46:58.321Z,65.92
2022-11-04T12:50:04.307Z,65.91
2022-11-04T12:53:17.685Z,65.92
2022-11-04T12:56:14.505Z,65.99
2022-11-04T12:59:24.620Z,65.92
2022-11-04T13:02:30.976Z,66.04
2022-11-04T13:05:37.735Z,65.90
2022-11-04T13:08:46.395Z,65.94
2022-11-04T13:11:43.397Z,66.30
2022-11-04T13:14:35.554Z,67.12
2022-11-04T13:17:29.605Z,66.79
2022-11-04T13:20:45.656Z,66.90
2022-11-04T13:23:57.956Z,66.39
2022-11-04T13:26:43.777Z,64.59
2022-11-04T13:29:34.460Z,64.64
2022-11-04T13:32:38.441Z,65.35
2022-11-04T13:35:33.515Z,65.09
2022-11-04T13:38:24.649Z,65.17
2022-11-04T13:41:28.453Z,64.96
2022-11-04T13:44:39.141Z,65.10
2022-11-04T13:47:30.397Z,65.12
2022-11-04T13:50:39.810Z,65.25
2022-11-04T13:53:44.079Z,64.72
2022-11-04T13:56:36.061Z,65.02
2022-11-04T13:59:31.319Z,65.08
2022-11-04T14:02:19.633Z,64.80
2022-11-04T14:05:23.999Z,64.63
2022-11-04T14:08:15.712Z,64.63
2022-11-04T14:11:05.879Z,64.38
2022-11-04T14:14:03.497Z,64.59
2022-11-04T14:16:49.480Z,64.52
2022-11-04T14:19:56.159Z,64.45
2022-11-04T14:22:44.347Z,64.38
2022-11-04T14:25:39.984Z,64.34
2022-11-04T14:28:28.425Z,64.33
2022-11-04T14:31:23.728Z,64.48
2022-11-04T14:34:35.545Z,64.29
2022-11-04T14:37:25.706Z,64.32
2022-11-04T14:40:26.135Z,64.41
2022-11-04T14:43:33.683Z,64.52
2022-11-04T14:46:22.745Z,64.42
2022-11-04T14:49:45.500Z,64.49
2022-11-04T14:52:39.074Z,65.08
2022-11-04T14:55:29.713Z,65.05
2022-11-04T14:58:28.165Z,65.12
2022-11-04T15:01:15.475Z,64.93
2022-11-04T15:04:13.069Z,64.64
2022-11-04T15:07:01.685Z,64.62
2022-11-04T15:09:49.702Z,64.50
2022-11-04T15:12:54.721Z,64.50
2022-11-04T15:15:44.787Z,64.54
2022-11-04T15:18:30.293Z,64.58
2022-11-04T15:21:16.289Z,64.75
2022-11-04T15:24:01.702Z,64.80
2022-11-04T15:26:53.036Z,65.01
2022-11-04T15:29:38.454Z,64.88
2022-11-04T15:32:25.067Z,65.11
2022-11-04T15:35:13.529Z,64.77
2022-11-04T15:38:02.100Z,65.10
2022-11-04T15:40:47.433Z,65.01
2022-11-04T15:43:33.071Z,65.06
2022-11-04T15:46:20.082Z,65.29
2022-11-04T15:49:07.509Z,65.51
2022-11-04T15:51:56.713Z,65.51
2022-11-04T15:54:47.023Z,65.36
2022-11-04T15:57:37.804Z,65.61
2022-11-04T16:00:25.025Z,66.04
2022-11-04T16:03:19.552Z,66.42
2022-11-04T16:06:09.822Z,66.18
2022-11-04T16:09:09.305Z,66.26
2022-11-04T16:12:13.926Z,66.29
2022-11-04T16:15:00.190Z,66.33
2022-11-04T16:17:45.806Z,66.13
2022-11-04T16:20:32.186Z,65.95
2022-11-04T16:23:47.886Z,66.37
2022-11-04T16:26:39.900Z,65.97
2022-11-04T16:29:29.959Z,65.02
2022-11-04T16:32:26.752Z,65.65
2022-11-04T16:35:24.974Z,65.63
2022-11-04T16:38:10.580Z,66.08
2022-11-04T16:40:57.476Z,65.63
2022-11-04T16:43:43.791Z,65.26
2022-11-04T16:46:29.439Z,65.26
2022-11-04T16:49:18.437Z,65.29
2022-11-04T16:52:03.838Z,65.08
2022-11-04T16:54:49.625Z,64.65
2022-11-04T16:57:35.640Z,64.45
2022-11-04T17:00:23.868Z,64.64
2022-11-04T17:03:22.073Z,64.76
2022-11-04T17:06:08.015Z,65.08
2022-11-04T17:08:53.351Z,65.71
2022-11-04T17:11:39.028Z,65.49
2022-11-04T17:14:24.996Z,65.98
2022-11-04T17:17:14.812Z,66.19
2022-11-04T17:20:00.611Z,66.16
2022-11-04T17:22:47.112Z,65.96
2022-11-04T17:25:33.580Z,65.97
2022-11-04T17:28:19.471Z,66.51
2022-11-04T17:31:05.107Z,66.32
2022-11-04T17:33:50.646Z,66.34
2022-11-04T17:36:36.367Z,66.51
2022-11-04T17:39:21.754Z,65.86
2022-11-04T17:42:36.331Z,66.12
2022-11-04T17:45:21.823Z,66.14
2022-11-04T17:48:08.461Z,66.41
2022-11-04T17:50:53.794Z,66.03
2022-11-04T17:53:39.349Z,65.97
2022-11-04T17:56:26.259Z,65.90
2022-11-04T17:59:13.949Z,65.93
2022-11-04T18:01:59.411Z,65.55
2022-11-04T18:04:46.308Z,65.33
2022-11-04T18:07:31.819Z,65.24
2022-11-04T18:10:17.002Z,64.89
2022-11-04T18:13:02.169Z,65.40
2022-11-04T18:15:47.381Z,64.38
2022-11-04T18:18:32.648Z,62.42
2022-11-04T18:21:18.409Z,63.63
2022-11-04T18:24:04.389Z,64.33
2022-11-04T18:26:50.291Z,64.73
2022-11-04T18:29:44.944Z,64.68
2022-11-04T18:32:30.115Z,64.82
2022-11-04T18:35:15.812Z,65.03
2022-11-04T18:38:01.621Z,64.91
2022-11-04T18:40:47.299Z,64.92
2022-11-04T18:43:34.351Z,65.02
2022-11-04T18:46:20.059Z,65.09
2022-11-04T18:49:05.595Z,64.98
2022-11-04T18:51:51.162Z,65.03
2022-11-04T18:54:36.609Z,65.11
2022-11-04T18:57:22.581Z,65.21
2022-11-04T19:00:11.743Z,65.27
2022-11-04T19:03:02.484Z,65.30
2022-11-04T19:05:48.394Z,64.97
2022-11-04T19:08:34.639Z,65.01
2022-11-04T19:11:29.095Z,64.84
2022-11-04T19:14:19.027Z,65.07
2022-11-04T19:17:04.578Z,65.47
2022-11-04T19:19:51.537Z,65.38
2022-11-04T19:22:37.091Z,64.69
2022-11-04T19:25:22.261Z,64.88
2022-11-04T19:28:33.134Z,65.01
2022-11-04T19:31:18.655Z,65.01
2022-11-04T19:34:07.021Z,64.92
2022-11-04T19:36:52.952Z,64.59
2022-11-04T19:39:38.697Z,64.92
2022-11-04T19:42:42.927Z,64.61
2022-11-04T19:45:28.556Z,64.35
2022-11-04T19:48:14.467Z,64.22
2022-11-04T19:50:59.827Z,64.06
2022-11-04T19:53:45.002Z,63.79
2022-11-04T19:56:33.485Z,63.53
2022-11-04T19:59:19.233Z,63.50
2022-11-04T20:02:04.783Z,63.23
2022-11-04T20:04:50.285Z,63.38
2022-11-04T20:07:35.384Z,63.30
2022-11-04T20:10:22.969Z,63.16
2022-11-04T20:13:36.751Z,63.21
2022-11-04T20:16:29.605Z,63.26
2022-11-04T20:19:19.852Z,63.20
2022-11-04T20:22:07.647Z,63.26
2022-11-04T20:24:53.246Z,63.34
2022-11-04T20:27:38.900Z,63.29
2022-11-04T20:30:24.402Z,63.37
2022-11-04T20:33:09.824Z,63.29
2022-11-04T20:35:54.987Z,63.39
2022-11-04T20:38:40.700Z,63.38
2022-11-04T20:41:26.609Z,63.38
2022-11-04T20:44:13.381Z,63.45
2022-11-04T20:46:59.971Z,63.30
2022-11-04T20:49:45.535Z,63.36
2022-11-04T20:52:31.168Z,63.40
2022-11-04T20:55:16.839Z,63.53
2022-11-04T20:58:02.435Z,63.46
2022-11-04T21:00:47.850Z,63.38
2022-11-04T21:03:32.975Z,63.43
2022-11-04T21:06:20.083Z,63.36
2022-11-04T21:09:08.282Z,63.49
2022-11-04T21:11:54.134Z,63.52
2022-11-04T21:14:39.819Z,63.36
2022-11-04T21:17:25.007Z,63.29
2022-11-04T21:20:10.831Z,63.27
2022-11-04T21:22:56.083Z,63.45
2022-11-04T21:25:44.790Z,63.40
2022-11-04T21:28:30.441Z,63.54
2022-11-04T21:31:16.176Z,63.93
2022-11-04T21:34:01.943Z,63.57
2022-11-04T21:36:50.679Z,63.52
2022-11-04T21:39:38.036Z,63.65
2022-11-04T21:42:23.310Z,63.67
2022-11-04T21:45:08.830Z,63.80
2022-11-04T21:47:54.463Z,63.79
2022-11-04T21:50:39.784Z,63.91
2022-11-04T21:53:25.029Z,63.76
2022-11-04T21:56:16.064Z,63.54
2022-11-04T21:59:01.887Z,63.69
2022-11-04T22:01:47.903Z,63.43
2022-11-04T22:04:33.483Z,63.43
2022-11-04T22:07:38.559Z,63.60
2022-11-04T22:10:25.181Z,63.40
2022-11-04T22:13:11.103Z,63.24
2022-11-04T22:15:59.422Z,63.29
2022-11-04T22:18:45.680Z,63.14
2022-11-04T22:21:32.512Z,63.15
2022-11-04T22:24:18.834Z,63.31
2022-11-04T22:27:04.072Z,62.62
2022-11-04T22:29:49.502Z,62.79
2022-11-04T22:32:34.825Z,63.01
2022-11-04T22:35:20.308Z,62.97
2022-11-04T22:38:05.536Z,62.64
2022-11-04T22:40:55.621Z,62.93
2022-11-04T22:43:41.310Z,62.91
2022-11-04T22:46:29.340Z,62.90
2022-11-04T22:49:14.903Z,62.56
2022-11-04T22:52:00.453Z,62.66
2022-11-04T22:54:45.717Z,62.59
2022-11-04T22:57:31.067Z,62.84
2022-11-04T23:00:16.505Z,62.45
2022-11-04T23:03:01.923Z,62.60
2022-11-04T23:05:47.688Z,62.69
2022-11-04T23:08:34.907Z,62.52
2022-11-04T23:11:43.035Z,62.33
2022-11-04T23:14:43.405Z,62.28
2022-11-04T23:17:47.475Z,62.09
2022-11-04T23:20:32.521Z,62.22
2022-11-04T23:23:36.683Z,62.10
2022-11-04T23:26:27.410Z,62.26
2022-11-04T23:29:32.488Z,62.20
2022-11-04T23:32:19.246Z,62.13
2022-11-04T23:35:24.997Z,62.05
2022-11-04T23:38:10.531Z,61.80
2022-11-04T23:41:34.468Z,62.05
2022-11-04T23:44:38.559Z,61.91
2022-11-04T23:47:42.554Z,62.10
2022-11-04T23:50:47.042Z,61.97
2022-11-04T23:53:50.879Z,62.23
2022-11-04T23:56:54.890Z,61.98
2022-11-04T23:59:58.985Z,61.65
